createdAt,value
2017-08-17T00:00:08.228Z,0
2017-08-17T00:01:09.850Z,0
2017-08-17T00:02:11.477Z,0
2017-08-17T00:03:13.104Z,0
2017-08-17T00:04:14.730Z,0
2017-08-17T00:05:16.344Z,0
2017-08-17T00:06:17.969Z,0
2017-08-17T00:07:19.595Z,0
2017-08-17T00:08:21.213Z,0
2017-08-17T00:09:22.831Z,0
2017-08-17T00:10:24.464Z,0
2017-08-17T00:11:26.088Z,0
2017-08-17T00:12:27.713Z,0
2017-08-17T00:13:29.346Z,0
2017-08-17T00:14:30.968Z,0
2017-08-17T00:15:32.592Z,0
2017-08-17T00:16:34.207Z,0
2017-08-17T00:17:35.827Z,0
2017-08-17T00:18:37.463Z,0
2017-08-17T00:19:39.084Z,0
2017-08-17T00:20:40.704Z,0
2017-08-17T00:21:42.329Z,0
2017-08-17T00:22:43.967Z,0
2017-08-17T00:23:45.598Z,0
2017-08-17T00:24:47.220Z,0
2017-08-17T00:25:48.844Z,0
2017-08-17T00:26:51.884Z,0
2017-08-17T00:27:53.496Z,0
2017-08-17T00:28:55.113Z,0
2017-08-17T00:29:56.730Z,0
2017-08-17T00:30:58.352Z,0
2017-08-17T00:31:59.980Z,0
2017-08-17T00:33:01.609Z,0
2017-08-17T00:34:03.241Z,0
2017-08-17T00:35:04.860Z,0
2017-08-17T00:36:06.486Z,0
2017-08-17T00:37:08.111Z,0
2017-08-17T00:38:09.733Z,0
2017-08-17T00:39:11.351Z,0
2017-08-17T00:40:12.984Z,0
2017-08-17T00:41:14.609Z,0
2017-08-17T00:42:16.230Z,0
2017-08-17T00:43:17.848Z,0
2017-08-17T00:44:19.472Z,0
2017-08-17T00:45:21.100Z,0
2017-08-17T00:46:22.720Z,0
2017-08-17T00:47:24.347Z,0
2017-08-17T00:48:25.976Z,0
2017-08-17T00:49:27.592Z,0
2017-08-17T00:50:29.211Z,0
2017-08-17T00:51:30.842Z,0
2017-08-17T00:52:32.469Z,0
2017-08-17T00:53:34.088Z,0
2017-08-17T00:54:35.709Z,0
2017-08-17T00:55:37.343Z,0
2017-08-17T00:56:38.965Z,0
2017-08-17T00:57:40.585Z,0
2017-08-17T00:58:42.208Z,0
2017-08-17T00:59:43.833Z,0
2017-08-17T01:00:45.465Z,0
2017-08-17T01:01:47.083Z,0
2017-08-17T01:02:48.711Z,0
2017-08-17T01:03:50.331Z,0
2017-08-17T01:04:51.951Z,0
2017-08-17T01:05:53.582Z,0
2017-08-17T01:06:55.211Z,0
2017-08-17T01:07:56.829Z,0
2017-08-17T01:08:58.455Z,0
2017-08-17T01:10:00.083Z,0
2017-08-17T01:11:01.709Z,0
2017-08-17T01:12:03.329Z,0
2017-08-17T01:13:04.950Z,0
2017-08-17T01:14:06.578Z,0
2017-08-17T01:15:08.214Z,0
2017-08-17T01:16:09.834Z,0
2017-08-17T01:17:11.457Z,0
2017-08-17T01:18:13.092Z,0
2017-08-17T01:19:14.707Z,0
2017-08-17T01:20:16.326Z,0
2017-08-17T01:21:17.959Z,0
2017-08-17T01:22:19.584Z,0
2017-08-17T01:23:21.208Z,0
2017-08-17T01:24:22.830Z,0
2017-08-17T01:25:24.454Z,0
2017-08-17T01:26:26.083Z,0
2017-08-17T01:27:27.701Z,0
2017-08-17T01:28:29.324Z,0
2017-08-17T01:29:30.949Z,0
2017-08-17T01:30:32.578Z,0
2017-08-17T01:31:34.215Z,0
2017-08-17T01:32:35.831Z,0
2017-08-17T01:33:37.455Z,0
2017-08-17T01:34:39.076Z,0
2017-08-17T01:35:40.698Z,0
2017-08-17T01:36:42.329Z,0
2017-08-17T01:37:43.945Z,0
2017-08-17T01:38:45.569Z,0
2017-08-17T01:39:47.198Z,0
2017-08-17T01:40:48.820Z,0
2017-08-17T01:41:50.443Z,0
2017-08-17T01:42:52.063Z,0
2017-08-17T01:43:53.695Z,0
2017-08-17T01:44:55.318Z,0
2017-08-17T01:45:56.940Z,0
2017-08-17T01:46:58.559Z,0
2017-08-17T01:48:00.175Z,0
2017-08-17T01:49:01.805Z,0
2017-08-17T01:50:03.422Z,0
2017-08-17T01:51:05.045Z,0
2017-08-17T01:52:06.678Z,0
2017-08-17T01:53:08.303Z,0
2017-08-17T01:54:09.928Z,0
2017-08-17T01:55:11.552Z,0
2017-08-17T01:56:15.999Z,0
2017-08-17T01:57:17.629Z,0
2017-08-17T01:58:19.246Z,0
2017-08-17T01:59:20.868Z,0
2017-08-17T02:00:22.508Z,0
2017-08-17T02:01:24.152Z,0
2017-08-17T02:02:25.774Z,0
2017-08-17T02:03:27.392Z,0
2017-08-17T02:04:29.016Z,0
2017-08-17T02:05:30.642Z,0
2017-08-17T02:06:32.273Z,0
2017-08-17T02:07:33.892Z,0
2017-08-17T02:08:35.511Z,0
2017-08-17T02:09:37.140Z,0
2017-08-17T02:10:38.764Z,0
2017-08-17T02:11:40.381Z,0
2017-08-17T02:12:42.002Z,0
2017-08-17T02:13:43.633Z,0
2017-08-17T02:14:45.248Z,0
2017-08-17T02:15:46.865Z,0
2017-08-17T02:16:48.483Z,0
2017-08-17T02:17:50.109Z,0
2017-08-17T02:18:51.738Z,0
2017-08-17T02:19:53.356Z,0
2017-08-17T02:20:54.974Z,0
2017-08-17T02:21:56.612Z,0
2017-08-17T02:22:58.226Z,0
2017-08-17T02:23:59.845Z,0
2017-08-17T02:25:01.466Z,0
2017-08-17T02:26:03.084Z,0
2017-08-17T02:27:04.714Z,0
2017-08-17T02:28:06.338Z,0
2017-08-17T02:29:07.957Z,0
2017-08-17T02:30:09.576Z,0
2017-08-17T02:31:11.200Z,0
2017-08-17T02:32:12.827Z,0
2017-08-17T02:33:14.445Z,0
2017-08-17T02:34:16.071Z,0
2017-08-17T02:35:17.699Z,0
2017-08-17T02:36:19.329Z,0
2017-08-17T02:37:20.947Z,0
2017-08-17T02:38:22.565Z,0
2017-08-17T02:39:24.196Z,0
2017-08-17T02:40:25.818Z,0
2017-08-17T02:41:27.435Z,0
2017-08-17T02:42:29.058Z,0
2017-08-17T02:43:30.686Z,0
2017-08-17T02:44:32.311Z,0
2017-08-17T02:45:33.933Z,0
2017-08-17T02:46:35.554Z,0
2017-08-17T02:47:37.188Z,0
2017-08-17T02:48:38.813Z,0
2017-08-17T02:49:40.430Z,0
2017-08-17T02:50:42.053Z,0
2017-08-17T02:51:43.684Z,0
2017-08-17T02:52:45.309Z,0
2017-08-17T02:53:46.922Z,0
2017-08-17T02:54:48.544Z,0
2017-08-17T02:55:50.171Z,0
2017-08-17T02:56:51.806Z,0
2017-08-17T02:57:53.438Z,0
2017-08-17T02:58:55.055Z,0
2017-08-17T02:59:56.677Z,0
2017-08-17T03:00:58.301Z,0
2017-08-17T03:01:59.925Z,0
2017-08-17T03:03:01.542Z,0
2017-08-17T03:04:03.170Z,0
2017-08-17T03:05:04.800Z,0
2017-08-17T03:06:06.422Z,0
2017-08-17T03:07:08.043Z,0
2017-08-17T03:08:09.661Z,0
2017-08-17T03:09:11.294Z,0
2017-08-17T03:10:12.924Z,0
2017-08-17T03:11:14.545Z,0
2017-08-17T03:12:16.168Z,0
2017-08-17T03:13:17.797Z,0
2017-08-17T03:14:19.413Z,0
2017-08-17T03:15:21.032Z,0
2017-08-17T03:16:22.651Z,0
2017-08-17T03:17:24.284Z,0
2017-08-17T03:18:25.918Z,0
2017-08-17T03:19:27.539Z,0
2017-08-17T03:20:29.169Z,0
2017-08-17T03:21:30.792Z,0
2017-08-17T03:22:32.419Z,0
2017-08-17T03:23:34.037Z,0
2017-08-17T03:24:35.661Z,0
2017-08-17T03:25:37.297Z,0
2017-08-17T03:26:38.920Z,0
2017-08-17T03:27:40.544Z,0
2017-08-17T03:28:42.163Z,0
2017-08-17T03:29:43.792Z,0
2017-08-17T03:30:45.424Z,0
2017-08-17T03:31:47.054Z,0
2017-08-17T03:32:48.676Z,0
2017-08-17T03:33:50.301Z,0
2017-08-17T03:34:51.921Z,0
2017-08-17T03:35:53.549Z,0
2017-08-17T03:36:55.169Z,0
2017-08-17T03:37:56.790Z,0
2017-08-17T03:38:58.417Z,0
2017-08-17T03:40:00.048Z,0
2017-08-17T03:41:01.673Z,0
2017-08-17T03:42:03.296Z,0
2017-08-17T03:43:04.923Z,0
2017-08-17T03:44:06.547Z,0
2017-08-17T03:45:08.166Z,0
2017-08-17T03:46:09.788Z,0
2017-08-17T03:47:11.420Z,0
2017-08-17T03:48:13.046Z,0
2017-08-17T03:49:14.663Z,0
2017-08-17T03:50:16.286Z,0
2017-08-17T03:51:17.930Z,0
2017-08-17T03:52:19.555Z,0
2017-08-17T03:53:21.175Z,0
2017-08-17T03:54:22.795Z,0
2017-08-17T03:55:24.430Z,0
2017-08-17T03:56:26.049Z,0
2017-08-17T03:57:27.669Z,0
2017-08-17T03:58:29.290Z,0
2017-08-17T03:59:30.916Z,0
2017-08-17T04:00:32.553Z,0
2017-08-17T04:01:34.169Z,0
2017-08-17T04:02:35.793Z,0
2017-08-17T04:03:37.438Z,0
2017-08-17T04:04:39.058Z,0
2017-08-17T04:05:40.680Z,0
2017-08-17T04:06:42.308Z,0
2017-08-17T04:07:43.928Z,0
2017-08-17T04:08:45.563Z,0
2017-08-17T04:09:47.190Z,0
2017-08-17T04:10:48.808Z,0
2017-08-17T04:11:50.435Z,0
2017-08-17T04:12:52.056Z,0
2017-08-17T04:13:53.677Z,0
2017-08-17T04:14:55.312Z,0
2017-08-17T04:15:56.945Z,0
2017-08-17T04:16:58.568Z,0
2017-08-17T04:18:00.189Z,0
2017-08-17T04:19:01.828Z,5
2017-08-17T04:20:03.451Z,5
2017-08-17T04:21:05.073Z,5
2017-08-17T04:22:06.695Z,5
2017-08-17T04:23:08.328Z,5
2017-08-17T04:24:09.951Z,5
2017-08-17T04:25:11.578Z,5
2017-08-17T04:26:13.206Z,5
2017-08-17T04:27:14.829Z,5
2017-08-17T04:28:16.461Z,11
2017-08-17T04:29:18.089Z,11
2017-08-17T04:30:19.714Z,11
2017-08-17T04:31:21.344Z,11
2017-08-17T04:32:22.970Z,11
2017-08-17T04:33:24.590Z,11
2017-08-17T04:34:26.211Z,11
2017-08-17T04:35:27.846Z,16
2017-08-17T04:36:29.469Z,16
2017-08-17T04:37:31.095Z,16
2017-08-17T04:38:32.723Z,22
2017-08-17T04:39:34.349Z,22
2017-08-17T04:40:35.975Z,28
2017-08-17T04:41:37.600Z,28
2017-08-17T04:42:39.220Z,28
2017-08-17T04:43:40.858Z,33
2017-08-17T04:44:42.483Z,39
2017-08-17T04:45:44.113Z,39
2017-08-17T04:46:45.737Z,45
2017-08-17T04:47:47.373Z,45
2017-08-17T04:48:49.007Z,50
2017-08-17T04:49:50.630Z,50
2017-08-17T04:50:52.255Z,56
2017-08-17T04:51:53.883Z,61
2017-08-17T04:52:55.510Z,61
2017-08-17T04:53:57.134Z,67
2017-08-17T04:54:59.402Z,67
2017-08-17T04:56:01.034Z,67
2017-08-17T04:57:02.671Z,67
2017-08-17T04:58:04.293Z,67
2017-08-17T04:59:05.918Z,67
2017-08-17T05:00:07.552Z,67
2017-08-17T05:01:09.176Z,67
2017-08-17T05:02:10.797Z,67
2017-08-17T05:03:12.421Z,67
2017-08-17T05:04:14.051Z,67
2017-08-17T05:05:15.676Z,73
2017-08-17T05:06:17.306Z,73
2017-08-17T05:07:18.929Z,73
2017-08-17T05:08:20.562Z,73
2017-08-17T05:09:22.184Z,73
2017-08-17T05:10:23.814Z,73
2017-08-17T05:11:25.446Z,67
2017-08-17T05:12:27.066Z,67
2017-08-17T05:13:28.697Z,67
2017-08-17T05:14:30.323Z,67
2017-08-17T05:15:31.945Z,61
2017-08-17T05:16:33.579Z,61
2017-08-17T05:17:35.203Z,61
2017-08-17T05:18:36.840Z,61
2017-08-17T05:19:38.469Z,61
2017-08-17T05:20:40.093Z,61
2017-08-17T05:21:41.721Z,67
2017-08-17T05:22:43.659Z,67
2017-08-17T05:23:45.297Z,67
2017-08-17T05:24:47.532Z,67
2017-08-17T05:25:49.536Z,73
2017-08-17T05:26:51.597Z,78
2017-08-17T05:27:53.593Z,78
2017-08-17T05:28:55.455Z,84
2017-08-17T05:29:57.502Z,90
2017-08-17T05:30:59.407Z,95
2017-08-17T05:32:01.031Z,101
2017-08-17T05:33:02.661Z,106
2017-08-17T05:34:04.284Z,112
2017-08-17T05:35:05.916Z,118
2017-08-17T05:36:07.560Z,118
2017-08-17T05:37:09.184Z,123
2017-08-17T05:38:10.811Z,129
2017-08-17T05:39:12.449Z,129
2017-08-17T05:40:14.079Z,135
2017-08-17T05:41:15.704Z,140
2017-08-17T05:42:17.333Z,140
2017-08-17T05:43:18.974Z,146
2017-08-17T05:44:20.614Z,146
2017-08-17T05:45:22.229Z,140
2017-08-17T05:46:23.854Z,146
2017-08-17T05:47:25.491Z,146
2017-08-17T05:48:27.120Z,146
2017-08-17T05:49:28.748Z,151
2017-08-17T05:50:30.376Z,151
2017-08-17T05:51:32.008Z,157
2017-08-17T05:52:33.638Z,163
2017-08-17T05:53:35.263Z,168
2017-08-17T05:54:36.895Z,168
2017-08-17T05:55:38.527Z,135
2017-08-17T05:56:40.165Z,180
2017-08-17T05:57:41.789Z,185
2017-08-17T05:58:43.424Z,185
2017-08-17T05:59:45.053Z,191
2017-08-17T06:00:46.684Z,191
2017-08-17T06:01:48.307Z,191
2017-08-17T06:02:49.973Z,185
2017-08-17T06:03:51.606Z,185
2017-08-17T06:04:53.242Z,180
2017-08-17T06:05:54.936Z,180
2017-08-17T06:06:56.570Z,174
2017-08-17T06:07:58.199Z,174
2017-08-17T06:08:59.834Z,174
2017-08-17T06:10:01.458Z,174
2017-08-17T06:11:03.084Z,180
2017-08-17T06:12:04.784Z,180
2017-08-17T06:13:06.413Z,185
2017-08-17T06:14:08.036Z,185
2017-08-17T06:15:09.662Z,191
2017-08-17T06:16:11.294Z,191
2017-08-17T06:17:12.931Z,191
2017-08-17T06:18:14.556Z,191
2017-08-17T06:19:16.249Z,191
2017-08-17T06:20:17.874Z,196
2017-08-17T06:21:19.505Z,208
2017-08-17T06:22:21.141Z,225
2017-08-17T06:23:22.763Z,253
2017-08-17T06:24:24.398Z,253
2017-08-17T06:25:26.079Z,270
2017-08-17T06:26:27.708Z,281
2017-08-17T06:27:29.335Z,309
2017-08-17T06:28:30.968Z,337
2017-08-17T06:29:32.601Z,348
2017-08-17T06:30:34.227Z,337
2017-08-17T06:31:35.855Z,326
2017-08-17T06:32:37.493Z,326
2017-08-17T06:33:39.125Z,348
2017-08-17T06:34:40.747Z,393
2017-08-17T06:35:42.379Z,365
2017-08-17T06:36:44.005Z,371
2017-08-17T06:37:45.655Z,348
2017-08-17T06:38:47.286Z,337
2017-08-17T06:39:48.916Z,331
2017-08-17T06:40:50.553Z,343
2017-08-17T06:41:52.188Z,360
2017-08-17T06:42:53.813Z,354
2017-08-17T06:43:55.439Z,382
2017-08-17T06:44:57.084Z,360
2017-08-17T06:45:58.709Z,371
2017-08-17T06:47:00.338Z,399
2017-08-17T06:48:01.980Z,416
2017-08-17T06:49:03.611Z,376
2017-08-17T06:50:05.246Z,388
2017-08-17T06:51:06.866Z,410
2017-08-17T06:52:08.500Z,461
2017-08-17T06:53:10.136Z,607
2017-08-17T06:54:11.765Z,556
2017-08-17T06:55:13.399Z,495
2017-08-17T06:56:15.030Z,466
2017-08-17T06:57:16.668Z,433
2017-08-17T06:58:18.296Z,455
2017-08-17T06:59:19.928Z,489
2017-08-17T07:00:21.570Z,455
2017-08-17T07:01:23.205Z,433
2017-08-17T07:02:24.836Z,438
2017-08-17T07:03:26.463Z,461
2017-08-17T07:04:28.097Z,483
2017-08-17T07:05:29.734Z,472
2017-08-17T07:06:31.361Z,466
2017-08-17T07:07:32.994Z,478
2017-08-17T07:08:34.637Z,466
2017-08-17T07:09:36.272Z,455
2017-08-17T07:10:37.898Z,461
2017-08-17T07:11:39.528Z,421
2017-08-17T07:12:41.169Z,376
2017-08-17T07:13:42.804Z,365
2017-08-17T07:14:44.434Z,348
2017-08-17T07:15:46.064Z,348
2017-08-17T07:16:47.727Z,343
2017-08-17T07:17:49.338Z,343
2017-08-17T07:18:50.963Z,343
2017-08-17T07:19:52.593Z,354
2017-08-17T07:20:54.237Z,371
2017-08-17T07:21:55.870Z,382
2017-08-17T07:22:57.501Z,405
2017-08-17T07:23:59.138Z,399
2017-08-17T07:25:00.763Z,399
2017-08-17T07:26:02.406Z,393
2017-08-17T07:27:04.032Z,388
2017-08-17T07:28:05.663Z,376
2017-08-17T07:29:07.298Z,371
2017-08-17T07:30:08.929Z,360
2017-08-17T07:31:10.561Z,348
2017-08-17T07:32:12.197Z,343
2017-08-17T07:33:13.835Z,348
2017-08-17T07:34:15.461Z,348
2017-08-17T07:35:17.090Z,343
2017-08-17T07:36:18.725Z,337
2017-08-17T07:37:20.355Z,337
2017-08-17T07:38:21.994Z,343
2017-08-17T07:39:23.616Z,354
2017-08-17T07:40:25.255Z,360
2017-08-17T07:41:26.892Z,343
2017-08-17T07:42:28.524Z,320
2017-08-17T07:43:30.155Z,298
2017-08-17T07:44:31.782Z,281
2017-08-17T07:45:33.423Z,270
2017-08-17T07:46:35.048Z,264
2017-08-17T07:47:36.678Z,258
2017-08-17T07:48:38.308Z,241
2017-08-17T07:49:39.940Z,230
2017-08-17T07:50:41.569Z,230
2017-08-17T07:51:43.196Z,219
2017-08-17T07:52:44.837Z,208
2017-08-17T07:53:46.465Z,208
2017-08-17T07:54:48.093Z,219
2017-08-17T07:55:49.730Z,230
2017-08-17T07:56:51.359Z,230
2017-08-17T07:57:52.984Z,236
2017-08-17T07:58:54.615Z,258
2017-08-17T07:59:56.252Z,309
2017-08-17T08:00:57.888Z,343
2017-08-17T08:01:59.516Z,371
2017-08-17T08:03:01.143Z,388
2017-08-17T08:04:02.778Z,371
2017-08-17T08:05:04.415Z,348
2017-08-17T08:06:06.043Z,315
2017-08-17T08:07:07.674Z,292
2017-08-17T08:08:09.309Z,281
2017-08-17T08:09:10.940Z,298
2017-08-17T08:10:12.566Z,320
2017-08-17T08:11:14.195Z,348
2017-08-17T08:12:15.847Z,371
2017-08-17T08:13:17.466Z,393
2017-08-17T08:14:19.096Z,405
2017-08-17T08:15:20.724Z,433
2017-08-17T08:16:22.363Z,472
2017-08-17T08:17:23.994Z,506
2017-08-17T08:18:25.640Z,579
2017-08-17T08:19:27.252Z,590
2017-08-17T08:20:28.894Z,630
2017-08-17T08:21:30.529Z,793
2017-08-17T08:22:32.153Z,731
2017-08-17T08:23:33.782Z,900
2017-08-17T08:24:35.415Z,798
2017-08-17T08:25:37.053Z,894
2017-08-17T08:26:38.683Z,838
2017-08-17T08:27:40.329Z,973
2017-08-17T08:28:41.961Z,916
2017-08-17T08:29:43.590Z,765
2017-08-17T08:30:45.224Z,652
2017-08-17T08:31:46.860Z,646
2017-08-17T08:32:48.500Z,624
2017-08-17T08:33:50.139Z,601
2017-08-17T08:34:51.772Z,573
2017-08-17T08:35:53.412Z,551
2017-08-17T08:36:55.047Z,511
2017-08-17T08:37:56.674Z,495
2017-08-17T08:38:58.311Z,478
2017-08-17T08:39:59.943Z,472
2017-08-17T08:41:01.579Z,472
2017-08-17T08:42:03.211Z,483
2017-08-17T08:43:04.848Z,500
2017-08-17T08:44:06.483Z,523
2017-08-17T08:45:08.119Z,528
2017-08-17T08:46:09.745Z,523
2017-08-17T08:47:11.377Z,523
2017-08-17T08:48:13.022Z,534
2017-08-17T08:49:14.657Z,540
2017-08-17T08:50:16.291Z,534
2017-08-17T08:51:17.917Z,540
2017-08-17T08:52:19.558Z,534
2017-08-17T08:53:21.205Z,528
2017-08-17T08:54:22.830Z,517
2017-08-17T08:55:24.464Z,511
2017-08-17T08:56:26.102Z,511
2017-08-17T08:57:27.752Z,506
2017-08-17T08:58:29.369Z,500
2017-08-17T08:59:30.999Z,472
2017-08-17T09:00:32.641Z,438
2017-08-17T09:01:34.276Z,421
2017-08-17T09:02:35.906Z,444
2017-08-17T09:03:37.549Z,489
2017-08-17T09:04:39.180Z,528
2017-08-17T09:05:40.811Z,562
2017-08-17T09:06:42.445Z,551
2017-08-17T09:07:44.074Z,523
2017-08-17T09:08:45.710Z,506
2017-08-17T09:09:47.357Z,489
2017-08-17T09:10:48.986Z,495
2017-08-17T09:11:50.619Z,495
2017-08-17T09:12:52.258Z,495
2017-08-17T09:13:53.892Z,500
2017-08-17T09:14:55.521Z,511
2017-08-17T09:15:57.156Z,506
2017-08-17T09:16:58.793Z,472
2017-08-17T09:18:00.436Z,433
2017-08-17T09:19:02.067Z,405
2017-08-17T09:20:03.728Z,399
2017-08-17T09:21:05.352Z,382
2017-08-17T09:22:06.986Z,376
2017-08-17T09:23:08.626Z,382
2017-08-17T09:24:10.258Z,393
2017-08-17T09:25:11.901Z,399
2017-08-17T09:26:13.536Z,399
2017-08-17T09:27:15.164Z,388
2017-08-17T09:28:16.870Z,382
2017-08-17T09:29:18.511Z,399
2017-08-17T09:30:20.144Z,433
2017-08-17T09:31:21.772Z,478
2017-08-17T09:32:23.409Z,506
2017-08-17T09:33:25.039Z,337
2017-08-17T09:34:26.670Z,523
2017-08-17T09:35:28.307Z,495
2017-08-17T09:36:29.945Z,461
2017-08-17T09:37:31.573Z,444
2017-08-17T09:38:33.206Z,433
2017-08-17T09:39:34.846Z,433
2017-08-17T09:40:36.488Z,433
2017-08-17T09:41:38.113Z,433
2017-08-17T09:42:39.746Z,444
2017-08-17T09:43:41.382Z,455
2017-08-17T09:44:43.016Z,478
2017-08-17T09:45:44.642Z,478
2017-08-17T09:46:46.275Z,478
2017-08-17T09:47:47.919Z,466
2017-08-17T09:48:49.558Z,466
2017-08-17T09:49:51.187Z,461
2017-08-17T09:50:52.816Z,444
2017-08-17T09:51:54.455Z,438
2017-08-17T09:52:56.089Z,433
2017-08-17T09:53:57.721Z,438
2017-08-17T09:54:59.352Z,438
2017-08-17T09:56:00.992Z,450
2017-08-17T09:57:02.621Z,455
2017-08-17T09:58:04.249Z,455
2017-08-17T09:59:05.881Z,444
2017-08-17T10:00:07.523Z,433
2017-08-17T10:01:09.163Z,433
2017-08-17T10:02:10.795Z,416
2017-08-17T10:03:12.424Z,410
2017-08-17T10:04:14.057Z,416
2017-08-17T10:05:15.692Z,421
2017-08-17T10:06:17.323Z,421
2017-08-17T10:07:18.955Z,421
2017-08-17T10:08:20.597Z,421
2017-08-17T10:09:22.230Z,433
2017-08-17T10:10:23.874Z,455
2017-08-17T10:11:25.513Z,472
2017-08-17T10:12:27.139Z,495
2017-08-17T10:13:28.781Z,500
2017-08-17T10:14:30.408Z,506
2017-08-17T10:15:32.042Z,523
2017-08-17T10:16:34.108Z,556
2017-08-17T10:17:35.739Z,601
2017-08-17T10:18:37.368Z,635
2017-08-17T10:19:38.996Z,658
2017-08-17T10:20:40.636Z,658
2017-08-17T10:21:42.277Z,624
2017-08-17T10:22:43.907Z,579
2017-08-17T10:23:45.543Z,534
2017-08-17T10:24:47.176Z,489
2017-08-17T10:25:48.808Z,450
2017-08-17T10:26:50.446Z,427
2017-08-17T10:27:52.081Z,416
2017-08-17T10:28:53.713Z,405
2017-08-17T10:29:55.344Z,393
2017-08-17T10:30:56.978Z,388
2017-08-17T10:31:58.608Z,382
2017-08-17T10:33:00.251Z,382
2017-08-17T10:34:01.894Z,388
2017-08-17T10:35:03.520Z,393
2017-08-17T10:36:05.154Z,416
2017-08-17T10:37:06.792Z,433
2017-08-17T10:38:08.428Z,444
2017-08-17T10:39:10.056Z,478
2017-08-17T10:40:11.686Z,556
2017-08-17T10:41:13.329Z,658
2017-08-17T10:42:14.970Z,703
2017-08-17T10:43:16.599Z,765
2017-08-17T10:44:18.243Z,770
2017-08-17T10:45:19.879Z,725
2017-08-17T10:46:21.517Z,630
2017-08-17T10:47:23.144Z,579
2017-08-17T10:48:24.776Z,585
2017-08-17T10:49:26.412Z,551
2017-08-17T10:50:28.047Z,528
2017-08-17T10:51:29.679Z,511
2017-08-17T10:52:31.311Z,500
2017-08-17T10:53:32.950Z,489
2017-08-17T10:54:34.589Z,500
2017-08-17T10:55:36.217Z,573
2017-08-17T10:56:37.849Z,669
2017-08-17T10:57:39.485Z,759
2017-08-17T10:58:41.114Z,793
2017-08-17T10:59:42.750Z,894
2017-08-17T11:00:44.386Z,866
2017-08-17T11:01:46.025Z,793
2017-08-17T11:02:47.658Z,748
2017-08-17T11:03:49.288Z,658
2017-08-17T11:04:50.920Z,568
2017-08-17T11:05:52.571Z,540
2017-08-17T11:06:54.213Z,534
2017-08-17T11:07:55.841Z,517
2017-08-17T11:08:57.481Z,506
2017-08-17T11:09:59.114Z,545
2017-08-17T11:11:00.747Z,556
2017-08-17T11:12:02.378Z,551
2017-08-17T11:13:04.011Z,551
2017-08-17T11:14:05.656Z,545
2017-08-17T11:15:07.317Z,590
2017-08-17T11:16:08.935Z,613
2017-08-17T11:17:10.564Z,618
2017-08-17T11:18:12.193Z,675
2017-08-17T11:19:13.828Z,708
2017-08-17T11:20:15.461Z,843
2017-08-17T11:21:17.105Z,939
2017-08-17T11:22:18.738Z,911
2017-08-17T11:23:20.374Z,798
2017-08-17T11:24:22.001Z,759
2017-08-17T11:25:23.633Z,810
2017-08-17T11:26:25.276Z,939
2017-08-17T11:27:26.921Z,1046
2017-08-17T11:28:28.554Z,1119
2017-08-17T11:29:30.190Z,1113
2017-08-17T11:30:31.822Z,961
2017-08-17T11:31:33.457Z,900
2017-08-17T11:32:35.138Z,956
2017-08-17T11:33:36.769Z,1198
2017-08-17T11:34:38.404Z,1046
2017-08-17T11:35:40.039Z,855
2017-08-17T11:36:41.671Z,753
2017-08-17T11:37:43.308Z,838
2017-08-17T11:38:44.947Z,871
2017-08-17T11:39:46.589Z,787
2017-08-17T11:40:48.220Z,652
2017-08-17T11:41:49.855Z,517
2017-08-17T11:42:51.499Z,427
2017-08-17T11:43:53.127Z,433
2017-08-17T11:44:54.769Z,438
2017-08-17T11:45:56.402Z,421
2017-08-17T11:46:58.031Z,438
2017-08-17T11:47:59.672Z,483
2017-08-17T11:49:01.308Z,506
2017-08-17T11:50:02.940Z,517
2017-08-17T11:51:04.570Z,590
2017-08-17T11:52:06.203Z,635
2017-08-17T11:53:07.840Z,691
2017-08-17T11:54:09.481Z,770
2017-08-17T11:55:11.112Z,725
2017-08-17T11:56:12.749Z,613
2017-08-17T11:57:14.390Z,630
2017-08-17T11:58:16.017Z,714
2017-08-17T11:59:17.653Z,742
2017-08-17T12:00:19.284Z,832
2017-08-17T12:01:20.922Z,1001
2017-08-17T12:02:22.562Z,916
2017-08-17T12:03:24.192Z,556
2017-08-17T12:04:25.837Z,410
2017-08-17T12:05:27.477Z,348
2017-08-17T12:06:29.108Z,388
2017-08-17T12:07:30.737Z,388
2017-08-17T12:08:32.369Z,376
2017-08-17T12:09:34.013Z,410
2017-08-17T12:10:35.650Z,427
2017-08-17T12:11:37.284Z,506
2017-08-17T12:12:38.927Z,607
2017-08-17T12:13:40.560Z,703
2017-08-17T12:14:42.190Z,663
2017-08-17T12:15:43.822Z,545
2017-08-17T12:16:45.455Z,556
2017-08-17T12:17:47.098Z,596
2017-08-17T12:18:48.735Z,573
2017-08-17T12:19:50.364Z,528
2017-08-17T12:20:51.998Z,472
2017-08-17T12:21:53.628Z,472
2017-08-17T12:22:55.271Z,483
2017-08-17T12:23:56.906Z,534
2017-08-17T12:24:58.547Z,630
2017-08-17T12:26:00.182Z,708
2017-08-17T12:27:01.816Z,753
2017-08-17T12:28:03.448Z,753
2017-08-17T12:29:05.076Z,652
2017-08-17T12:30:06.746Z,528
2017-08-17T12:31:08.379Z,534
2017-08-17T12:32:10.012Z,686
2017-08-17T12:33:11.648Z,838
2017-08-17T12:34:13.282Z,855
2017-08-17T12:35:14.922Z,753
2017-08-17T12:36:16.548Z,658
2017-08-17T12:37:18.179Z,635
2017-08-17T12:38:19.813Z,601
2017-08-17T12:39:21.452Z,579
2017-08-17T12:40:23.098Z,568
2017-08-17T12:41:24.730Z,585
2017-08-17T12:42:26.377Z,618
2017-08-17T12:43:28.003Z,675
2017-08-17T12:44:29.634Z,607
2017-08-17T12:45:31.267Z,466
2017-08-17T12:46:32.908Z,421
2017-08-17T12:47:34.551Z,416
2017-08-17T12:48:36.178Z,410
2017-08-17T12:49:37.810Z,343
2017-08-17T12:50:39.445Z,326
2017-08-17T12:51:41.084Z,365
2017-08-17T12:52:42.713Z,388
2017-08-17T12:53:44.346Z,410
2017-08-17T12:54:45.986Z,388
2017-08-17T12:55:47.618Z,315
2017-08-17T12:56:49.245Z,292
2017-08-17T12:57:50.876Z,421
2017-08-17T12:58:52.519Z,483
2017-08-17T12:59:54.152Z,416
2017-08-17T13:00:55.784Z,337
2017-08-17T13:01:57.430Z,371
2017-08-17T13:02:59.059Z,433
2017-08-17T13:04:00.690Z,388
2017-08-17T13:05:02.332Z,393
2017-08-17T13:06:03.958Z,438
2017-08-17T13:07:05.601Z,489
2017-08-17T13:08:07.236Z,455
2017-08-17T13:09:08.868Z,427
2017-08-17T13:10:10.503Z,388
2017-08-17T13:11:12.135Z,393
2017-08-17T13:12:13.773Z,450
2017-08-17T13:13:15.402Z,483
2017-08-17T13:14:17.032Z,489
2017-08-17T13:15:18.686Z,433
2017-08-17T13:16:20.312Z,444
2017-08-17T13:17:21.937Z,410
2017-08-17T13:18:25.753Z,410
2017-08-17T13:19:27.382Z,348
2017-08-17T13:20:29.011Z,208
2017-08-17T13:21:30.661Z,331
2017-08-17T13:22:33.526Z,303
2017-08-17T13:23:35.038Z,247
2017-08-17T13:24:36.676Z,185
2017-08-17T13:25:38.306Z,140
2017-08-17T13:26:39.936Z,123
2017-08-17T13:27:41.581Z,118
2017-08-17T13:28:43.211Z,202
2017-08-17T13:29:44.839Z,320
2017-08-17T13:30:46.470Z,371
2017-08-17T13:31:48.110Z,371
2017-08-17T13:32:49.747Z,343
2017-08-17T13:33:51.368Z,337
2017-08-17T13:34:53.013Z,348
2017-08-17T13:35:54.646Z,326
2017-08-17T13:36:56.289Z,309
2017-08-17T13:37:57.916Z,315
2017-08-17T13:38:59.549Z,343
2017-08-17T13:40:01.185Z,337
2017-08-17T13:41:02.811Z,337
2017-08-17T13:42:04.441Z,315
2017-08-17T13:43:06.074Z,376
2017-08-17T13:44:07.712Z,416
2017-08-17T13:45:09.352Z,450
2017-08-17T13:46:10.975Z,348
2017-08-17T13:47:12.608Z,247
2017-08-17T13:48:14.238Z,292
2017-08-17T13:49:15.874Z,202
2017-08-17T13:50:17.499Z,320
2017-08-17T13:51:19.128Z,303
2017-08-17T13:52:20.768Z,360
2017-08-17T13:53:22.396Z,298
2017-08-17T13:54:24.166Z,393
2017-08-17T13:55:26.355Z,433
2017-08-17T13:56:28.098Z,286
2017-08-17T13:57:30.215Z,292
2017-08-17T13:58:33.225Z,331
2017-08-17T13:59:34.860Z,331
2017-08-17T14:00:36.879Z,320
2017-08-17T14:01:38.981Z,303
2017-08-17T14:02:41.670Z,225
2017-08-17T14:03:44.187Z,286
2017-08-17T14:04:46.214Z,241
2017-08-17T14:05:48.238Z,253
2017-08-17T14:06:50.205Z,320
2017-08-17T14:07:52.302Z,427
2017-08-17T14:08:54.295Z,382
2017-08-17T14:09:56.223Z,264
2017-08-17T14:10:58.154Z,433
2017-08-17T14:12:00.114Z,405
2017-08-17T14:13:02.059Z,393
2017-08-17T14:14:04.270Z,523
2017-08-17T14:15:07.438Z,523
2017-08-17T14:16:09.374Z,461
2017-08-17T14:17:11.382Z,416
2017-08-17T14:18:13.272Z,410
2017-08-17T14:19:15.302Z,399
2017-08-17T14:20:17.319Z,388
2017-08-17T14:21:19.382Z,388
2017-08-17T14:22:21.322Z,399
2017-08-17T14:23:23.428Z,382
2017-08-17T14:24:25.661Z,410
2017-08-17T14:25:27.984Z,416
2017-08-17T14:26:30.323Z,376
2017-08-17T14:27:32.403Z,348
2017-08-17T14:28:34.202Z,410